createdAt,value
2022-10-28T00:00:30.519Z,13.89
2022-10-28T00:03:00.372Z,13.85
2022-10-28T00:05:26.917Z,13.83
2022-10-28T00:07:53.646Z,13.83
2022-10-28T00:10:20.454Z,13.82
2022-10-28T00:12:46.961Z,13.78
2022-10-28T00:15:13.426Z,13.75
2022-10-28T00:17:39.971Z,13.73
2022-10-28T00:20:07.067Z,13.73
2022-10-28T00:22:33.645Z,13.76
2022-10-28T00:25:00.060Z,13.74
2022-10-28T00:27:26.591Z,13.72
2022-10-28T00:29:53.077Z,13.73
2022-10-28T00:32:19.580Z,13.75
2022-10-28T00:34:46.046Z,13.72
2022-10-28T00:37:12.551Z,13.68
2022-10-28T00:39:38.999Z,13.66
2022-10-28T00:42:07.184Z,13.62
2022-10-28T00:44:39.765Z,13.65
2022-10-28T00:47:15.010Z,13.62
2022-10-28T00:49:43.638Z,13.61
2022-10-28T00:52:15.586Z,13.61
2022-10-28T00:54:43.392Z,13.61
2022-10-28T00:57:13.989Z,13.56
2022-10-28T00:59:45.975Z,13.55
2022-10-28T01:02:12.903Z,13.56
2022-10-28T01:04:39.555Z,13.53
2022-10-28T01:07:06.633Z,13.52
2022-10-28T01:09:33.095Z,13.50
2022-10-28T01:12:14.786Z,13.48
2022-10-28T01:15:12.392Z,13.48
2022-10-28T01:17:59.717Z,13.49
2022-10-28T01:20:59.801Z,13.49
2022-10-28T01:23:26.175Z,13.49
2022-10-28T01:26:35.989Z,13.50
2022-10-28T01:29:30.165Z,13.53
2022-10-28T01:32:10.525Z,13.57
2022-10-28T01:35:13.823Z,13.58
2022-10-28T01:38:02.210Z,13.61
2022-10-28T01:41:00.659Z,13.62
2022-10-28T01:43:34.367Z,13.63
2022-10-28T01:46:33.207Z,13.63
2022-10-28T01:49:06.138Z,13.60
2022-10-28T01:51:37.975Z,13.59
2022-10-28T01:54:07.680Z,13.58
2022-10-28T01:56:39.130Z,13.59
2022-10-28T01:59:09.441Z,13.56
2022-10-28T02:01:36.802Z,13.53
2022-10-28T02:04:03.891Z,13.50
2022-10-28T02:06:32.943Z,13.48
2022-10-28T02:09:20.813Z,13.47
2022-10-28T02:12:21.149Z,13.43
2022-10-28T02:14:47.544Z,13.41
2022-10-28T02:17:26.283Z,13.43
2022-10-28T02:20:09.223Z,13.42
2022-10-28T02:22:44.553Z,13.40
2022-10-28T02:25:20.094Z,13.39
2022-10-28T02:28:07.863Z,13.37
2022-10-28T02:30:54.031Z,13.38
2022-10-28T02:33:24.858Z,13.36
2022-10-28T02:36:08.142Z,13.36
2022-10-28T02:38:43.735Z,13.33
2022-10-28T02:41:50.622Z,13.31
2022-10-28T02:44:32.566Z,13.26
2022-10-28T02:47:03.112Z,13.31
2022-10-28T02:49:31.668Z,13.36
2022-10-28T02:52:02.989Z,13.36
2022-10-28T02:54:36.160Z,13.35
2022-10-28T02:57:08.973Z,13.32
2022-10-28T02:59:35.473Z,13.32
2022-10-28T03:02:03.305Z,13.34
2022-10-28T03:04:29.833Z,13.30
2022-10-28T03:06:56.316Z,13.29
2022-10-28T03:09:22.767Z,13.31
2022-10-28T03:11:49.282Z,13.29
2022-10-28T03:14:15.872Z,13.28
2022-10-28T03:16:42.959Z,13.26
2022-10-28T03:21:40.847Z,13.23
2022-10-28T03:24:07.407Z,13.21
2022-10-28T03:26:33.856Z,13.21
2022-10-28T03:29:00.351Z,13.20
2022-10-28T03:31:26.836Z,13.19
2022-10-28T03:33:53.371Z,13.16
2022-10-28T03:36:19.880Z,13.16
2022-10-28T03:38:46.438Z,13.18
2022-10-28T03:41:12.995Z,13.21
2022-10-28T03:43:39.481Z,13.20
2022-10-28T03:46:06.034Z,13.17
2022-10-28T03:48:32.555Z,13.15
2022-10-28T03:50:59.029Z,13.14
2022-10-28T03:53:29.026Z,13.12
2022-10-28T03:55:59.758Z,13.08
2022-10-28T03:58:27.121Z,13.04
2022-10-28T04:00:54.576Z,13.02
2022-10-28T04:03:22.722Z,13.01
2022-10-28T04:05:49.411Z,12.99
2022-10-28T04:08:20.537Z,12.97
2022-10-28T04:10:47.913Z,12.94
2022-10-28T04:13:15.665Z,12.96
2022-10-28T04:15:42.404Z,12.94
2022-10-28T04:18:09.183Z,12.96
2022-10-28T04:20:35.689Z,12.95
2022-10-28T04:23:02.551Z,12.91
2022-10-28T04:25:29.352Z,12.90
2022-10-28T04:27:56.034Z,12.88
2022-10-28T04:30:22.993Z,12.86
2022-10-28T04:32:49.549Z,12.81
2022-10-28T04:35:16.083Z,12.79
2022-10-28T04:37:42.893Z,12.77
2022-10-28T04:40:09.903Z,12.77
2022-10-28T04:42:36.484Z,12.75
2022-10-28T04:45:03.505Z,12.71
2022-10-28T04:47:29.973Z,12.69
2022-10-28T04:49:56.412Z,12.68
2022-10-28T04:52:22.862Z,12.68
2022-10-28T04:54:49.353Z,12.69
2022-10-28T04:57:15.854Z,12.71
2022-10-28T04:59:42.382Z,12.70
2022-10-28T05:02:08.897Z,12.70
2022-10-28T05:04:35.509Z,12.68
2022-10-28T05:07:02.057Z,12.64
2022-10-28T05:09:28.501Z,12.61
2022-10-28T05:11:54.964Z,12.58
2022-10-28T05:14:21.428Z,12.57
2022-10-28T05:16:48.595Z,12.54
2022-10-28T05:19:15.093Z,12.58
2022-10-28T05:21:41.577Z,12.58
2022-10-28T05:24:08.308Z,12.59
2022-10-28T05:26:34.718Z,12.60
2022-10-28T05:29:01.256Z,12.61
2022-10-28T05:31:27.687Z,12.62
2022-10-28T05:33:54.125Z,12.63
2022-10-28T05:36:20.624Z,12.63
2022-10-28T05:38:47.112Z,12.62
2022-10-28T05:41:13.659Z,12.63
2022-10-28T05:43:40.112Z,12.64
2022-10-28T05:46:06.634Z,12.64
2022-10-28T05:48:33.089Z,12.64
2022-10-28T05:50:59.559Z,12.62
2022-10-28T05:53:26.062Z,12.62
2022-10-28T05:55:52.486Z,12.65
2022-10-28T05:58:19.061Z,12.64
2022-10-28T06:00:45.573Z,12.63
2022-10-28T06:03:12.478Z,12.64
2022-10-28T06:05:42.249Z,12.62
2022-10-28T06:08:10.914Z,12.58
2022-10-28T06:10:37.468Z,12.57
2022-10-28T06:13:02.416Z,12.53
2022-10-28T06:15:30.145Z,12.53
2022-10-28T06:17:56.668Z,12.52
2022-10-28T06:20:23.097Z,12.51
2022-10-28T06:22:51.234Z,12.52
2022-10-28T06:25:18.547Z,12.52
2022-10-28T06:27:50.693Z,12.54
2022-10-28T06:30:17.493Z,12.53
2022-10-28T06:32:44.000Z,12.54
2022-10-28T06:35:10.547Z,12.53
2022-10-28T06:37:37.008Z,12.55
2022-10-28T06:40:04.104Z,12.55
2022-10-28T06:42:30.605Z,12.58
2022-10-28T06:44:57.125Z,12.58
2022-10-28T06:47:25.342Z,12.60
2022-10-28T06:49:51.803Z,12.64
2022-10-28T06:52:18.309Z,12.65
2022-10-28T06:54:44.762Z,12.65
2022-10-28T06:57:11.320Z,12.68
2022-10-28T06:59:37.890Z,12.72
2022-10-28T07:02:05.151Z,12.75
2022-10-28T07:04:33.345Z,12.78
2022-10-28T07:07:00.126Z,12.80
2022-10-28T07:09:26.702Z,12.82
2022-10-28T07:11:55.115Z,12.85
2022-10-28T07:14:22.363Z,12.87
2022-10-28T07:16:48.887Z,12.90
2022-10-28T07:19:17.955Z,12.94
2022-10-28T07:21:47.892Z,12.97
2022-10-28T07:24:14.465Z,13.03
2022-10-28T07:26:40.909Z,13.11
2022-10-28T07:29:07.386Z,13.16
2022-10-28T07:31:33.847Z,13.21
2022-10-28T07:34:00.377Z,13.25
2022-10-28T07:36:26.984Z,13.32
2022-10-28T07:38:53.516Z,13.37
2022-10-28T07:41:22.056Z,13.45
2022-10-28T07:43:48.991Z,13.54
2022-10-28T07:46:16.794Z,13.62
2022-10-28T07:48:43.444Z,13.67
2022-10-28T07:51:12.590Z,13.71
2022-10-28T07:53:39.430Z,13.76
2022-10-28T07:56:13.529Z,13.83
2022-10-28T07:58:41.474Z,13.88
2022-10-28T08:01:09.372Z,13.96
2022-10-28T08:03:38.861Z,14.06
2022-10-28T08:06:19.216Z,14.13
2022-10-28T08:08:47.759Z,14.21
2022-10-28T08:11:19.157Z,14.28
2022-10-28T08:13:47.066Z,14.38
2022-10-28T08:16:14.040Z,14.44
2022-10-28T08:18:40.985Z,14.53
2022-10-28T08:21:10.245Z,14.61
2022-10-28T08:23:38.376Z,14.70
2022-10-28T08:26:05.180Z,14.80
2022-10-28T08:28:31.710Z,14.89
2022-10-28T08:31:09.805Z,15.03
2022-10-28T08:33:38.281Z,15.19
2022-10-28T08:36:06.148Z,15.35
2022-10-28T08:38:32.700Z,15.46
2022-10-28T08:41:07.892Z,15.57
2022-10-28T08:43:57.586Z,15.67
2022-10-28T08:46:43.081Z,15.76
2022-10-28T08:49:16.237Z,15.76
2022-10-28T08:51:55.945Z,15.77
2022-10-28T08:54:35.494Z,15.80
2022-10-28T08:57:06.412Z,15.84
2022-10-28T08:59:38.447Z,15.88
2022-10-28T09:02:11.068Z,15.96
2022-10-28T09:04:43.992Z,16.00
2022-10-28T09:07:18.081Z,16.05
2022-10-28T09:09:46.106Z,16.10
2022-10-28T09:12:19.228Z,16.18
2022-10-28T09:15:05.124Z,16.29
2022-10-28T09:17:56.782Z,16.42
2022-10-28T09:20:29.581Z,16.50
2022-10-28T09:23:03.880Z,16.53
2022-10-28T09:25:49.941Z,16.57
2022-10-28T09:28:41.318Z,16.64
2022-10-28T09:31:26.562Z,16.67
2022-10-28T09:34:05.043Z,16.76
2022-10-28T09:36:39.663Z,16.85
2022-10-28T09:39:11.089Z,16.92
2022-10-28T09:41:39.241Z,16.93
2022-10-28T09:44:17.850Z,16.97
2022-10-28T09:46:48.591Z,16.96
2022-10-28T09:49:20.942Z,16.93
2022-10-28T09:51:52.419Z,16.90
2022-10-28T09:54:26.709Z,16.93
2022-10-28T09:56:53.350Z,16.88
2022-10-28T09:59:19.859Z,16.84
2022-10-28T10:01:47.717Z,16.90
2022-10-28T10:04:20.951Z,16.98
2022-10-28T10:06:58.097Z,17.02
2022-10-28T10:09:30.716Z,17.08
2022-10-28T10:12:04.863Z,17.09
2022-10-28T10:14:35.265Z,17.12
2022-10-28T10:17:06.507Z,17.14
2022-10-28T10:19:57.585Z,17.18
2022-10-28T10:22:43.676Z,17.26
2022-10-28T10:25:19.301Z,17.38
2022-10-28T10:27:55.668Z,17.49
2022-10-28T10:30:44.106Z,17.50
2022-10-28T10:33:22.274Z,17.52
2022-10-28T10:36:10.474Z,17.58
2022-10-28T10:38:38.188Z,17.67
2022-10-28T10:41:04.784Z,17.79
2022-10-28T10:43:32.581Z,17.91
2022-10-28T10:46:04.606Z,18.03
2022-10-28T10:48:36.539Z,18.12
2022-10-28T10:51:27.535Z,18.13
2022-10-28T10:54:00.809Z,18.12
2022-10-28T10:56:32.845Z,18.17
2022-10-28T10:59:02.818Z,18.19
2022-10-28T11:01:35.869Z,18.28
2022-10-28T11:04:06.212Z,18.34
2022-10-28T11:06:39.206Z,18.41
2022-10-28T11:09:22.274Z,18.47
2022-10-28T11:11:48.798Z,18.51
2022-10-28T11:14:15.216Z,18.53
2022-10-28T11:16:59.478Z,18.54
2022-10-28T11:19:34.864Z,18.58
2022-10-28T11:22:24.633Z,18.61
2022-10-28T11:25:12.484Z,18.67
2022-10-28T11:28:06.368Z,18.74
2022-10-28T11:30:38.909Z,18.77
2022-10-28T11:33:34.353Z,18.81
2022-10-28T11:36:13.179Z,18.89
2022-10-28T11:39:04.505Z,18.97
2022-10-28T11:41:40.101Z,19.02
2022-10-28T11:44:21.395Z,19.11
2022-10-28T11:47:00.927Z,19.16
2022-10-28T11:49:46.627Z,19.23
2022-10-28T11:52:45.166Z,19.30
2022-10-28T11:55:36.170Z,19.35
2022-10-28T11:58:11.453Z,19.39
2022-10-28T12:00:57.960Z,19.43
2022-10-28T12:04:06.302Z,19.47
2022-10-28T12:06:44.894Z,19.51
2022-10-28T12:09:13.955Z,19.57
2022-10-28T12:11:47.386Z,19.64
2022-10-28T12:14:26.852Z,19.67
2022-10-28T12:17:03.896Z,19.68
2022-10-28T12:19:38.950Z,19.67
2022-10-28T12:22:11.858Z,19.68
2022-10-28T12:24:41.118Z,19.68
2022-10-28T12:27:33.379Z,19.70
2022-10-28T12:30:06.045Z,19.73
2022-10-28T12:32:36.222Z,19.75
2022-10-28T12:35:14.528Z,19.77
2022-10-28T12:37:56.479Z,19.78
2022-10-28T12:40:31.725Z,19.78
2022-10-28T12:43:05.128Z,19.76
2022-10-28T12:45:32.743Z,19.70
2022-10-28T12:48:07.241Z,19.68
2022-10-28T12:50:51.740Z,19.64
2022-10-28T12:53:24.570Z,19.60
2022-10-28T12:56:00.755Z,19.55
2022-10-28T12:58:52.899Z,19.56
2022-10-28T13:01:22.317Z,19.58
2022-10-28T13:03:50.506Z,19.58
2022-10-28T13:06:43.353Z,19.59
2022-10-28T13:09:37.994Z,19.57
2022-10-28T13:12:28.765Z,19.58
2022-10-28T13:15:16.549Z,19.55
2022-10-28T13:18:04.539Z,19.54
2022-10-28T13:20:49.772Z,19.50
2022-10-28T13:23:43.787Z,19.49
2022-10-28T13:26:21.979Z,19.44
2022-10-28T13:28:51.540Z,19.47
2022-10-28T13:31:18.608Z,19.48
2022-10-28T13:34:00.140Z,19.51
2022-10-28T13:36:30.027Z,19.50
2022-10-28T13:39:03.313Z,19.51
2022-10-28T13:41:41.003Z,19.54
2022-10-28T13:44:09.786Z,19.55
2022-10-28T13:46:54.948Z,19.57
2022-10-28T13:49:35.144Z,19.55
2022-10-28T13:52:07.593Z,19.55
2022-10-28T13:54:43.251Z,19.55
2022-10-28T13:57:33.298Z,19.55
2022-10-28T14:00:02.045Z,19.57
2022-10-28T14:02:34.967Z,19.56
2022-10-28T14:05:06.315Z,19.55
2022-10-28T14:07:35.394Z,19.55
2022-10-28T14:10:29.321Z,19.54
2022-10-28T14:13:02.390Z,19.53
2022-10-28T14:15:40.791Z,19.51
2022-10-28T14:18:42.269Z,19.50
2022-10-28T14:21:10.089Z,19.49
2022-10-28T14:23:42.430Z,19.50
2022-10-28T14:26:08.962Z,19.47
2022-10-28T14:28:35.415Z,19.47
2022-10-28T14:31:07.783Z,19.49
2022-10-28T14:33:36.540Z,19.51
2022-10-28T14:36:37.934Z,19.49
2022-10-28T14:39:04.398Z,19.46
2022-10-28T14:41:36.558Z,19.42
2022-10-28T14:44:12.137Z,19.38
2022-10-28T14:47:01.838Z,19.36
2022-10-28T14:49:32.792Z,19.31
2022-10-28T14:52:16.446Z,19.27
2022-10-28T14:54:55.931Z,19.24
2022-10-28T14:57:34.173Z,19.21
2022-10-28T15:00:05.647Z,19.17
2022-10-28T15:02:34.114Z,19.13
2022-10-28T15:05:13.005Z,19.09
2022-10-28T15:07:41.142Z,19.06
2022-10-28T15:10:26.963Z,19.04
2022-10-28T15:12:56.147Z,19.01
2022-10-28T15:15:25.688Z,18.97
2022-10-28T15:17:52.953Z,18.93
2022-10-28T15:20:34.598Z,18.91
2022-10-28T15:23:22.284Z,18.88
2022-10-28T15:26:10.554Z,18.85
2022-10-28T15:28:38.040Z,18.83
2022-10-28T15:31:04.658Z,18.78
2022-10-28T15:33:37.242Z,18.75
2022-10-28T15:36:17.509Z,18.71
2022-10-28T15:38:46.832Z,18.68
2022-10-28T15:41:41.390Z,18.65
2022-10-28T15:44:42.951Z,18.61
2022-10-28T15:47:33.136Z,18.58
2022-10-28T15:50:03.522Z,18.56
2022-10-28T15:52:39.756Z,18.52
2022-10-28T15:55:18.431Z,18.49
2022-10-28T15:57:51.364Z,18.47
2022-10-28T16:00:22.376Z,18.45
2022-10-28T16:03:02.569Z,18.41
2022-10-28T16:05:32.218Z,18.37
2022-10-28T16:08:17.702Z,18.35
2022-10-28T16:10:48.493Z,18.31
2022-10-28T16:13:21.144Z,18.28
2022-10-28T16:15:55.037Z,18.25
2022-10-28T16:18:23.842Z,18.20
2022-10-28T16:20:50.714Z,18.19
2022-10-28T16:23:20.736Z,18.13
2022-10-28T16:25:47.307Z,18.08
2022-10-28T16:28:27.607Z,18.06
2022-10-28T16:30:56.313Z,18.04
2022-10-28T16:33:41.525Z,18.01
2022-10-28T16:36:08.289Z,17.99
2022-10-28T16:38:35.073Z,17.99
2022-10-28T16:41:03.565Z,18.00
2022-10-28T16:43:31.346Z,17.99
2022-10-28T16:46:00.371Z,18.00
2022-10-28T16:48:29.350Z,18.00
2022-10-28T16:51:00.418Z,18.00
2022-10-28T16:53:27.248Z,17.99
2022-10-28T16:55:58.948Z,17.99
2022-10-28T16:58:27.027Z,17.99
2022-10-28T17:00:53.679Z,18.00
2022-10-28T17:03:20.516Z,17.99
2022-10-28T17:05:48.025Z,17.98
2022-10-28T17:08:30.728Z,17.97
2022-10-28T17:11:04.735Z,17.93
2022-10-28T17:13:31.321Z,17.89
2022-10-28T17:15:57.779Z,17.87
2022-10-28T17:18:24.984Z,17.82
2022-10-28T17:21:01.742Z,17.78
2022-10-28T17:23:29.053Z,17.73
2022-10-28T17:25:57.967Z,17.65
2022-10-28T17:28:24.395Z,17.58
2022-10-28T17:30:50.965Z,17.54
2022-10-28T17:33:17.554Z,17.50
2022-10-28T17:35:44.041Z,17.44
2022-10-28T17:38:10.474Z,17.41
2022-10-28T17:40:36.952Z,17.37
2022-10-28T17:43:03.423Z,17.35
2022-10-28T17:45:29.890Z,17.31
2022-10-28T17:47:56.778Z,17.29
2022-10-28T17:50:23.236Z,17.28
2022-10-28T17:52:49.834Z,17.29
2022-10-28T17:55:16.316Z,17.29
2022-10-28T17:57:44.693Z,17.26
2022-10-28T18:00:11.634Z,17.20
2022-10-28T18:02:40.173Z,17.15
2022-10-28T18:05:07.047Z,17.13
2022-10-28T18:07:33.593Z,17.13
2022-10-28T18:10:00.116Z,17.11
2022-10-28T18:12:26.690Z,17.07
2022-10-28T18:14:53.197Z,17.04
2022-10-28T18:17:19.680Z,16.99
2022-10-28T18:19:46.197Z,16.95
2022-10-28T18:22:12.719Z,16.90
2022-10-28T18:24:39.195Z,16.85
2022-10-28T18:27:05.776Z,16.81
2022-10-28T18:29:32.267Z,16.76
2022-10-28T18:32:00.647Z,16.73
2022-10-28T18:34:27.535Z,16.70
2022-10-28T18:36:54.075Z,16.68
2022-10-28T18:39:20.542Z,16.65
2022-10-28T18:41:47.125Z,16.66
2022-10-28T18:44:14.623Z,16.66
2022-10-28T18:46:41.353Z,16.67
2022-10-28T18:49:07.887Z,16.67
2022-10-28T18:51:34.707Z,16.61
2022-10-28T18:54:01.620Z,16.56
2022-10-28T18:56:29.393Z,16.53
2022-10-28T18:58:57.556Z,16.47
2022-10-28T19:01:25.583Z,16.40
2022-10-28T19:03:57.822Z,16.34
2022-10-28T19:06:26.077Z,16.29
2022-10-28T19:08:54.941Z,16.24
2022-10-28T19:11:25.723Z,16.17
2022-10-28T19:13:52.222Z,16.11
2022-10-28T19:16:18.671Z,16.07
2022-10-28T19:18:45.144Z,16.03
2022-10-28T19:21:16.183Z,15.99
2022-10-28T19:23:43.485Z,15.92
2022-10-28T19:26:11.549Z,15.86
2022-10-28T19:28:39.981Z,15.81
2022-10-28T19:31:10.137Z,15.73
2022-10-28T19:33:40.284Z,15.70
2022-10-28T19:36:18.958Z,15.66
2022-10-28T19:38:47.114Z,15.60
2022-10-28T19:41:16.540Z,15.58
2022-10-28T19:43:43.439Z,15.59
2022-10-28T19:46:20.561Z,15.61
2022-10-28T19:48:51.954Z,15.57
2022-10-28T19:51:27.537Z,15.57
2022-10-28T19:53:58.935Z,15.55
2022-10-28T19:56:26.441Z,15.56
2022-10-28T19:58:58.427Z,15.54
2022-10-28T20:01:27.082Z,15.52
2022-10-28T20:03:54.959Z,15.48
2022-10-28T20:06:24.371Z,15.46
2022-10-28T20:08:51.208Z,15.44
2022-10-28T20:11:26.740Z,15.41
2022-10-28T20:13:58.792Z,15.37
2022-10-28T20:16:25.717Z,15.31
2022-10-28T20:18:56.757Z,15.28
2022-10-28T20:21:25.236Z,15.25
2022-10-28T20:23:54.082Z,15.18
2022-10-28T20:26:23.061Z,15.12
2022-10-28T20:28:50.535Z,15.08
2022-10-28T20:31:19.629Z,15.03
2022-10-28T20:33:51.305Z,15.01
2022-10-28T20:36:23.453Z,14.98
2022-10-28T20:39:03.103Z,14.95
2022-10-28T20:41:32.559Z,14.91
2022-10-28T20:43:59.946Z,14.87
2022-10-28T20:46:26.939Z,14.83
2022-10-28T20:48:54.306Z,14.81
2022-10-28T20:51:21.950Z,14.80
2022-10-28T20:53:48.586Z,14.78
2022-10-28T20:56:20.301Z,14.71
2022-10-28T20:58:47.281Z,14.66
2022-10-28T21:01:17.928Z,14.63
2022-10-28T21:03:45.599Z,14.58
2022-10-28T21:08:45.126Z,14.49
2022-10-28T21:11:13.821Z,14.44
2022-10-28T21:13:41.127Z,14.40
2022-10-28T21:16:09.852Z,14.37
2022-10-28T21:18:38.416Z,14.33
2022-10-28T21:21:06.967Z,14.27
2022-10-28T21:23:33.502Z,14.20
2022-10-28T21:26:02.867Z,14.14
2022-10-28T21:28:30.521Z,14.13
2022-10-28T21:31:11.134Z,14.13
2022-10-28T21:33:38.523Z,14.06
2022-10-28T21:36:10.635Z,14.01
2022-10-28T21:38:37.209Z,13.96
2022-10-28T21:41:09.601Z,13.94
2022-10-28T21:43:38.251Z,13.91
2022-10-28T21:46:05.645Z,13.89
2022-10-28T21:48:34.269Z,13.85
2022-10-28T21:51:02.698Z,13.80
2022-10-28T21:53:32.743Z,13.75
2022-10-28T21:56:16.332Z,13.72
2022-10-28T21:58:43.956Z,13.68
2022-10-28T22:01:13.552Z,13.64
2022-10-28T22:03:40.426Z,13.61
2022-10-28T22:06:07.643Z,13.58
2022-10-28T22:08:34.667Z,13.53
2022-10-28T22:11:12.176Z,13.49
2022-10-28T22:13:38.668Z,13.44
2022-10-28T22:16:08.424Z,13.44
2022-10-28T22:18:37.198Z,13.41
2022-10-28T22:21:11.282Z,13.39
2022-10-28T22:23:38.654Z,13.37
2022-10-28T22:26:07.786Z,13.34
2022-10-28T22:28:34.739Z,13.29
2022-10-28T22:31:03.432Z,13.27
2022-10-28T22:33:30.180Z,13.27
2022-10-28T22:36:02.100Z,13.25
2022-10-28T22:38:29.181Z,13.24
2022-10-28T22:41:06.936Z,13.24
2022-10-28T22:43:34.004Z,13.24
2022-10-28T22:46:01.385Z,13.21
2022-10-28T22:48:28.301Z,13.21
2022-10-28T22:50:54.788Z,13.20
2022-10-28T22:53:21.679Z,13.19
2022-10-28T22:55:48.244Z,13.17
2022-10-28T22:58:16.012Z,13.15
2022-10-28T23:00:43.492Z,13.14
2022-10-28T23:03:09.987Z,13.11
2022-10-28T23:05:36.557Z,13.09
2022-10-28T23:08:03.451Z,13.08
2022-10-28T23:10:29.994Z,13.06
2022-10-28T23:12:57.742Z,13.04
2022-10-28T23:15:25.023Z,13.03
2022-10-28T23:17:52.855Z,13.03
2022-10-28T23:20:24.284Z,13.03
2022-10-28T23:22:51.022Z,13.03
2022-10-28T23:25:17.623Z,13.01
2022-10-28T23:27:44.821Z,13.02
2022-10-28T23:30:13.275Z,13.01
2022-10-28T23:32:40.404Z,12.99
2022-10-28T23:35:07.448Z,12.94
2022-10-28T23:37:34.151Z,12.90
2022-10-28T23:40:00.721Z,12.89
2022-10-28T23:42:27.367Z,12.85
2022-10-28T23:44:53.838Z,12.84
2022-10-28T23:47:20.270Z,12.79
2022-10-28T23:49:46.807Z,12.77
2022-10-28T23:52:13.426Z,12.76
2022-10-28T23:54:39.923Z,12.73
2022-10-28T23:57:06.397Z,12.71
2022-10-28T23:59:32.920Z,12.68
